Time;durP1;ratioP1;P1;durP2;ratioP2;P2;SDS_P1;SDS_P2;PMS_P1;PMS_P2;Temp;Humidity;BMP_temperature;BMP_pressure;BME280_temperature;BME280_humidity;BME280_pressure;Samples;Min_cycle;Max_cycle;Signal;HPM_P1;HPM_P2
2021/12/26 00:03:35;;;;;;;8.85;7.28;;;;;;;2.52;70.20;99431.97;10287353;28;20134;-65
2021/12/26 00:08:39;;;;;;;7.75;7.03;;;;;;;2.57;69.96;99435.19;10290405;28;20137;-65
2021/12/26 00:13:41;;;;;;;7.28;6.57;;;;;;;2.57;69.80;99436.00;10292773;28;20046;-65
2021/12/26 00:18:45;;;;;;;7.15;6.45;;;;;;;2.61;70.41;99432.28;10289338;28;20050;-66
2021/12/26 00:23:47;;;;;;;7.72;7.00;;;;;;;2.66;69.72;99434.63;10280880;28;20086;-65
2021/12/26 00:28:48;;;;;;;8.80;7.78;;;;;;;2.60;69.63;99413.97;10284317;28;20150;-66
2021/12/26 00:33:50;;;;;;;7.70;6.90;;;;;;;2.63;69.93;99419.03;10287834;28;20061;-64
2021/12/26 00:38:51;;;;;;;8.65;6.68;;;;;;;2.67;70.13;99431.03;10286770;28;20050;-66
2021/12/26 00:43:54;;;;;;;7.88;7.13;;;;;;;2.69;70.30;99421.28;10287565;28;20136;-66
2021/12/26 00:48:55;;;;;;;7.20;6.50;;;;;;;2.77;71.07;99426.06;10289052;28;20189;-65
2021/12/26 00:53:57;;;;;;;7.25;6.55;;;;;;;2.79;70.21;99425.03;10266917;28;20162;-66
2021/12/26 00:58:58;;;;;;;7.25;6.65;;;;;;;2.70;70.46;99425.59;10290186;28;20056;-66
2021/12/26 01:04:05;;;;;;;8.27;7.47;;;;;;;2.74;70.21;99415.75;10282222;28;20137;-65
2021/12/26 01:09:09;;;;;;;7.43;6.72;;;;;;;2.57;70.49;99406.28;10287819;28;20057;-65
2021/12/26 01:14:13;;;;;;;6.77;6.10;;;;;;;2.55;70.84;99400.25;10273452;28;20121;-65
2021/12/26 01:19:18;;;;;;;8.05;7.20;;;;;;;2.63;70.44;99403.28;10289469;28;20286;-65
2021/12/26 01:24:20;;;;;;;7.53;6.72;;;;;;;2.63;70.52;99403.28;10287220;28;20050;-65
2021/12/26 01:29:21;;;;;;;8.45;7.60;;;;;;;2.71;70.38;99406.25;10285781;28;20142;-65
2021/12/26 01:34:23;;;;;;;8.63;7.82;;;;;;;2.69;70.38;99397.63;10312885;23;20057;-69
2021/12/26 01:39:25;;;;;;;8.15;7.32;;;;;;;2.68;70.14;99395.09;10254009;28;20046;-69
2021/12/26 01:44:27;;;;;;;8.20;6.95;;;;;;;2.71;70.26;99405.44;10277787;28;20047;-69
2021/12/26 01:49:30;;;;;;;8.43;7.53;;;;;;;2.70;70.17;99399.31;10243546;28;20057;-69
2021/12/26 01:54:43;;;;;;;9.05;7.65;;;;;;;2.68;70.35;99409.06;10231579;28;20501;-71
2021/12/26 01:59:47;;;;;;;9.32;8.40;;;;;;;2.57;70.73;99412.38;10238100;28;20047;-69
2021/12/26 02:04:48;;;;;;;9.02;7.65;;;;;;;2.57;69.94;99401.84;10244956;28;20425;-69
2021/12/26 02:09:49;;;;;;;8.38;7.53;;;;;;;2.29;70.81;99394.78;10224851;28;20077;-70
2021/12/26 02:14:53;;;;;;;7.88;7.07;;;;;;;2.41;70.04;99396.69;10249171;28;20461;-69
2021/12/26 02:21:35;;;;;;;8.57;7.70;;;;;;;2.47;69.98;99406.81;10220817;28;20126;-69
2021/12/26 02:30:58;;;;;;;8.32;7.53;;;;;;;2.47;69.83;99398.94;10244378;28;20161;-69
2021/12/26 02:36:00;;;;;;;8.38;7.57;;;;;;;2.47;69.60;99392.84;10239716;28;20094;-69
2021/12/26 02:41:03;;;;;;;9.38;8.38;;;;;;;2.45;69.61;99390.31;10239199;28;20047;-69
2021/12/26 02:46:06;;;;;;;8.77;7.85;;;;;;;2.55;69.59;99395.00;10248141;28;20126;-70
2021/12/26 02:51:08;;;;;;;9.20;8.15;;;;;;;2.48;69.42;99384.88;10228062;28;20058;-70
2021/12/26 02:56:09;;;;;;;9.50;8.55;;;;;;;2.42;70.49;99389.66;10234708;28;20142;-70
2021/12/26 03:01:18;;;;;;;8.43;7.45;;;;;;;2.53;70.08;99396.88;10248527;28;20043;-69
2021/12/26 03:07:03;;;;;;;8.98;8.07;;;;;;;2.38;70.20;99399.50;10249743;28;20066;-69
2021/12/26 03:11:47;;;;;;;9.50;8.60;;;;;;;2.47;69.81;99393.66;10247554;28;20047;-69
2021/12/26 03:16:50;;;;;;;9.18;8.18;;;;;;;2.44;69.64;99383.34;10258956;28;20098;-68
2021/12/26 03:21:52;;;;;;;10.80;9.07;;;;;;;2.56;69.29;99386.19;10245346;28;20680;-70
2021/12/26 03:27:02;;;;;;;8.07;7.28;;;;;;;2.51;69.23;99388.22;10253112;28;20142;-69
2021/12/26 03:32:05;;;;;;;8.55;7.75;;;;;;;2.52;69.58;99403.91;10250342;28;20105;-69
2021/12/26 03:37:07;;;;;;;9.50;8.02;;;;;;;2.56;69.27;99400.16;10245144;28;20138;-70
2021/12/26 03:42:09;;;;;;;10.05;8.13;;;;;;;2.53;69.50;99394.25;10256173;28;20142;-69
2021/12/26 03:47:10;;;;;;;10.75;8.20;;;;;;;2.54;69.47;99388.03;10241971;28;20151;-70
2021/12/26 03:52:12;;;;;;;8.68;7.72;;;;;;;2.55;69.67;99384.50;10245739;28;20053;-69
2021/12/26 03:57:13;;;;;;;9.00;7.53;;;;;;;2.54;69.73;99395.94;10250487;28;20063;-70
2021/12/26 04:02:15;;;;;;;10.10;9.10;;;;;;;2.52;69.75;99374.16;10252622;28;20114;-70
2021/12/26 04:07:17;;;;;;;9.05;8.07;;;;;;;2.56;69.70;99380.94;10240067;28;20047;-70
2021/12/26 04:12:19;;;;;;;10.05;8.93;;;;;;;2.60;69.63;99387.69;10250348;28;20440;-70
2021/12/26 04:17:20;;;;;;;9.32;8.30;;;;;;;2.59;69.61;99367.59;10256018;28;20460;-69
2021/12/26 04:22:21;;;;;;;9.68;8.73;;;;;;;2.60;69.85;99385.91;10250989;28;20085;-69
2021/12/26 04:27:24;;;;;;;9.73;8.40;;;;;;;2.57;70.43;99385.25;10253892;28;20157;-68
2021/12/26 04:32:25;;;;;;;8.70;7.80;;;;;;;2.72;70.23;99383.44;10247493;28;20055;-69
2021/12/26 04:37:27;;;;;;;8.30;7.50;;;;;;;2.71;70.08;99384.41;10248896;28;20082;-68
2021/12/26 04:42:29;;;;;;;8.48;7.50;;;;;;;2.71;70.07;99400.16;10259525;28;20453;-70
2021/12/26 04:47:30;;;;;;;9.63;8.63;;;;;;;2.70;69.98;99388.78;10253122;28;20059;-69
2021/12/26 04:52:32;;;;;;;10.07;8.35;;;;;;;2.66;69.25;99392.56;10279046;28;20047;-71
2021/12/26 04:57:33;;;;;;;9.07;8.15;;;;;;;2.62;69.53;99398.94;10251101;28;20046;-69
2021/12/26 05:02:36;;;;;;;10.38;8.48;;;;;;;2.55;69.19;99400.25;10236076;28;20584;-69
2021/12/26 05:07:40;;;;;;;9.63;8.68;;;;;;;2.60;69.14;99404.28;10247190;28;20051;-69
2021/12/26 05:12:41;;;;;;;10.50;8.48;;;;;;;2.62;69.63;99396.31;10261512;28;20245;-70
2021/12/26 05:17:44;;;;;;;9.73;8.73;;;;;;;2.62;68.79;99399.78;10272278;28;20051;-69
2021/12/26 05:22:47;;;;;;;8.93;7.88;;;;;;;2.56;69.14;99394.06;10261713;28;20156;-69
2021/12/26 05:27:51;;;;;;;9.82;8.68;;;;;;;2.58;69.47;99394.81;10252597;28;20058;-69
2021/12/26 05:32:52;;;;;;;9.88;8.35;;;;;;;2.57;69.12;99383.47;10254892;28;20408;-69
2021/12/26 05:37:54;;;;;;;11.38;9.40;;;;;;;2.55;69.23;99374.84;10251953;28;20248;-69
2021/12/26 05:42:55;;;;;;;9.02;8.07;;;;;;;2.62;69.17;99380.56;10238969;28;20257;-69
2021/12/26 05:47:57;;;;;;;11.57;8.93;;;;;;;2.65;69.27;99381.19;10234844;28;20081;-70
2021/12/26 05:52:59;;;;;;;9.05;7.80;;;;;;;2.65;69.34;99369.84;10239802;28;20287;-71
2021/12/26 05:58:00;;;;;;;9.30;8.13;;;;;;;2.65;69.15;99364.59;10252733;28;20134;-69
2021/12/26 06:03:01;;;;;;;9.93;8.23;;;;;;;2.67;69.48;99367.97;10260368;28;20074;-69
2021/12/26 06:08:03;;;;;;;8.75;7.82;;;;;;;2.75;69.22;99384.13;10252830;28;20531;-69
2021/12/26 06:13:05;;;;;;;9.43;8.45;;;;;;;2.77;69.40;99374.34;10231577;28;20142;-68
2021/12/26 06:18:06;;;;;;;8.73;7.88;;;;;;;2.74;69.28;99379.78;10224849;28;20065;-68
2021/12/26 06:23:09;;;;;;;8.93;8.02;;;;;;;2.76;69.22;99385.81;10224893;28;20047;-66
2021/12/26 06:28:10;;;;;;;9.40;8.48;;;;;;;2.73;68.68;99383.38;10205352;28;20368;-67
2021/12/26 06:33:12;;;;;;;10.05;8.30;;;;;;;2.67;68.63;99386.34;10198628;28;20788;-69
2021/12/26 06:38:13;;;;;;;10.98;8.73;;;;;;;2.69;68.38;99381.00;10209062;28;20202;-66
2021/12/26 06:43:15;;;;;;;8.32;7.43;;;;;;;2.65;68.60;99386.44;10209355;28;20054;-67
2021/12/26 06:48:17;;;;;;;9.07;8.10;;;;;;;2.70;68.60;99383.53;10219943;28;20529;-68
2021/12/26 06:53:19;;;;;;;10.00;8.70;;;;;;;2.61;68.40;99381.47;10219278;28;20061;-67
2021/12/26 06:58:20;;;;;;;11.20;8.93;;;;;;;2.58;68.25;99382.53;10222867;28;20051;-67
2021/12/26 07:03:22;;;;;;;10.38;9.38;;;;;;;2.63;67.83;99382.25;10225070;28;20063;-68
2021/12/26 07:08:23;;;;;;;9.82;8.82;;;;;;;2.59;67.89;99381.56;10233416;28;20376;-68
2021/12/26 07:13:24;;;;;;;9.43;8.25;;;;;;;2.52;67.95;99380.25;10218384;28;20188;-68
2021/12/26 07:18:26;;;;;;;9.70;7.90;;;;;;;2.58;68.11;99386.91;10224786;28;20174;-66
2021/12/26 07:23:27;;;;;;;9.90;8.18;;;;;;;2.55;67.61;99384.50;10222923;28;20058;-66
2021/12/26 07:28:29;;;;;;;9.13;8.10;;;;;;;2.54;67.81;99378.41;10222579;28;20708;-67
2021/12/26 07:33:30;;;;;;;11.38;9.98;;;;;;;2.52;67.70;99385.50;10227169;28;20505;-66
2021/12/26 07:38:31;;;;;;;9.50;7.82;;;;;;;2.45;68.04;99390.31;10221104;28;20339;-67
2021/12/26 07:43:53;;;;;;;10.07;9.07;;;;;;;2.46;68.03;99397.25;10224411;28;20391;-67
2021/12/26 07:48:55;;;;;;;9.35;8.32;;;;;;;2.40;68.06;99400.25;10226411;28;20394;-68
2021/12/26 07:54:01;;;;;;;9.18;8.27;;;;;;;2.36;68.09;99404.00;10229147;28;20565;-67
2021/12/26 07:59:03;;;;;;;9.98;8.50;;;;;;;2.53;67.84;99408.22;10231118;28;20055;-69
2021/12/26 08:04:05;;;;;;;10.63;8.52;;;;;;;2.50;67.85;99405.78;10250400;28;20499;-68
2021/12/26 08:09:07;;;;;;;8.95;8.05;;;;;;;2.51;67.90;99411.88;10233641;28;20073;-66
2021/12/26 08:14:08;;;;;;;9.25;8.00;;;;;;;2.52;68.01;99409.16;10215198;28;20442;-66
2021/12/26 08:19:10;;;;;;;9.80;8.10;;;;;;;2.57;67.90;99419.41;10213228;28;20505;-67
2021/12/26 08:24:12;;;;;;;9.98;8.60;;;;;;;2.61;67.70;99415.63;10229463;28;20134;-68
2021/12/26 08:29:13;;;;;;;9.73;8.25;;;;;;;2.61;67.99;99413.00;10219950;28;20184;-67
2021/12/26 08:34:20;;;;;;;9.52;8.48;;;;;;;2.62;67.66;99418.16;10231451;28;20134;-68
2021/12/26 08:39:21;;;;;;;10.10;8.63;;;;;;;2.61;67.62;99418.25;10231476;28;20228;-67
2021/12/26 08:44:23;;;;;;;10.07;9.02;;;;;;;2.72;67.75;99418.47;10226086;28;20058;-67
2021/12/26 08:49:27;;;;;;;9.90;8.38;;;;;;;2.68;67.64;99411.72;10233297;28;20861;-69
2021/12/26 08:54:30;;;;;;;9.57;8.55;;;;;;;2.77;67.76;99419.03;10224280;28;20489;-69
2021/12/26 08:59:32;;;;;;;10.43;8.23;;;;;;;2.82;67.73;99416.09;10208757;28;20453;-69
2021/12/26 09:04:38;;;;;;;11.40;9.05;;;;;;;2.85;68.04;99433.47;10230742;28;20061;-67
2021/12/26 09:09:41;;;;;;;9.52;8.55;;;;;;;2.92;67.43;99426.91;10223834;28;20078;-67
2021/12/26 09:14:42;;;;;;;9.32;8.35;;;;;;;2.94;67.40;99428.50;10229075;28;20058;-68
2021/12/26 09:19:44;;;;;;;10.30;9.27;;;;;;;2.94;67.75;99439.03;10229767;28;20512;-69
2021/12/26 09:24:46;;;;;;;11.30;8.95;;;;;;;2.99;67.92;99436.13;10207375;28;20062;-69
2021/12/26 09:29:47;;;;;;;10.00;8.40;;;;;;;3.06;67.67;99434.75;10227246;28;20134;-69
2021/12/26 09:34:49;;;;;;;12.18;9.98;;;;;;;3.09;67.89;99439.88;10221933;28;20736;-68
2021/12/26 09:39:52;;;;;;;9.82;8.38;;;;;;;3.09;67.98;99431.97;10226473;28;20416;-69
2021/12/26 09:44:54;;;;;;;11.15;9.27;;;;;;;3.13;68.33;99427.34;10225625;28;20043;-71
2021/12/26 09:49:55;;;;;;;11.85;9.80;;;;;;;3.16;68.93;99428.00;10226473;28;20143;-67
2021/12/26 09:54:57;;;;;;;11.32;9.80;;;;;;;3.28;69.01;99423.75;10222694;28;20047;-66
2021/12/26 09:59:58;;;;;;;10.10;9.10;;;;;;;3.42;68.78;99417.59;10244911;28;20119;-69
2021/12/26 10:05:00;;;;;;;10.35;9.05;;;;;;;3.46;68.74;99413.84;10241828;28;20505;-69
2021/12/26 10:10:06;;;;;;;11.32;9.57;;;;;;;3.54;68.38;99415.97;10239378;28;20525;-69
2021/12/26 10:15:08;;;;;;;11.90;9.52;;;;;;;3.56;68.36;99410.59;10221309;28;20055;-67
2021/12/26 10:20:10;;;;;;;10.00;9.00;;;;;;;3.53;68.57;99407.25;10222377;28;20531;-68
2021/12/26 10:25:15;;;;;;;8.98;7.97;;;;;;;3.57;68.63;99399.97;10204559;28;20055;-67
2021/12/26 10:30:22;;;;;;;12.35;9.38;;;;;;;3.56;68.42;99403.56;10218778;28;20138;-67
2021/12/26 10:35:23;;;;;;;11.68;9.25;;;;;;;3.52;67.75;99386.28;10222438;28;20061;-68
2021/12/26 10:40:28;;;;;;;10.65;8.98;;;;;;;3.52;67.98;99391.53;10203591;28;20047;-66
2021/12/26 10:45:31;;;;;;;;;;;;;;;3.51;67.72;99385.44;10223696;28;20057;-66
2021/12/26 10:50:37;;;;;;;10.55;9.35;;;;;;;3.43;68.03;99382.47;10204412;28;20405;-66
2021/12/26 10:55:47;;;;;;;11.23;9.80;;;;;;;3.47;68.11;99373.44;10204526;28;20509;-66
2021/12/26 11:00:52;;;;;;;10.05;8.88;;;;;;;3.60;67.26;99362.09;10219226;28;20448;-66
2021/12/26 11:06:06;;;;;;;10.98;8.90;;;;;;;3.62;67.27;99371.59;10213456;28;20520;-69
2021/12/26 11:11:17;;;;;;;11.13;9.95;;;;;;;3.59;68.08;99371.78;10235665;28;20055;-68
2021/12/26 11:16:19;;;;;;;9.70;8.38;;;;;;;3.51;67.87;99356.50;10224007;28;20098;-68
2021/12/26 11:21:22;;;;;;;11.38;9.20;;;;;;;3.52;67.72;99367.88;10218099;28;20296;-70
2021/12/26 11:26:23;;;;;;;13.23;10.50;;;;;;;3.44;68.17;99357.84;10224193;28;20168;-68
2021/12/26 11:31:28;;;;;;;12.18;10.20;;;;;;;3.56;68.52;99355.34;10222594;28;20133;-69
2021/12/26 11:36:32;;;;;;;11.13;9.90;;;;;;;3.61;68.70;99355.91;10234117;28;20054;-68
2021/12/26 11:41:54;;;;;;;12.10;10.50;;;;;;;3.68;68.97;99349.28;10228001;28;20105;-69
2021/12/26 11:47:56;;;;;;;13.95;11.30;;;;;;;3.60;69.49;99341.03;10210079;28;20126;-68
2021/12/26 11:53:27;;;;;;;11.45;10.30;;;;;;;3.57;70.09;99330.72;10181943;28;20660;-68
2021/12/26 11:59:05;;;;;;;12.30;10.85;;;;;;;3.55;70.37;99341.34;10184422;28;20439;-70
2021/12/26 12:04:18;;;;;;;10.30;9.20;;;;;;;3.53;70.16;99330.94;10212256;28;20569;-70
2021/12/26 12:09:24;;;;;;;11.30;10.00;;;;;;;3.60;69.85;99320.81;10230567;28;20102;-68
2021/12/26 12:14:50;;;;;;;11.23;9.98;;;;;;;3.66;69.52;99319.56;10225407;28;20047;-68
2021/12/26 12:20:06;;;;;;;10.85;9.73;;;;;;;3.77;69.43;99309.19;10224988;28;20313;-69
2021/12/26 12:25:32;;;;;;;12.35;10.65;;;;;;;3.81;69.62;99312.44;10217167;28;20469;-68
2021/12/26 12:30:35;;;;;;;12.38;10.45;;;;;;;3.84;69.89;99313.09;10204024;28;20126;-69
2021/12/26 12:35:48;;;;;;;12.52;10.57;;;;;;;3.80;69.54;99314.25;10230144;28;20110;-69
2021/12/26 12:40:50;;;;;;;12.45;10.82;;;;;;;3.73;69.09;99299.81;10239363;28;20058;-67
2021/12/26 12:46:00;;;;;;;12.45;10.52;;;;;;;3.76;69.15;99307.50;10206158;28;20138;-68
2021/12/26 12:51:21;;;;;;;11.52;10.32;;;;;;;3.69;69.96;99308.84;10261672;23;20138;-60
2021/12/26 12:56:33;;;;;;;13.82;11.73;;;;;;;3.75;70.07;99303.16;10255628;28;20055;-61
2021/12/26 13:01:40;;;;;;;12.95;10.80;;;;;;;3.80;69.82;99301.06;10251131;28;21443;-61
2021/12/26 13:06:54;;;;;;;11.98;10.60;;;;;;;3.74;69.73;99301.50;10270846;28;20058;-62
2021/12/26 13:12:12;;;;;;;12.27;10.70;;;;;;;3.73;70.25;99299.81;10254029;28;20276;-60
2021/12/26 13:17:34;;;;;;;12.50;11.20;;;;;;;3.72;70.54;99300.75;10251241;28;20042;-62
2021/12/26 13:22:42;;;;;;;13.52;11.27;;;;;;;3.64;70.76;99289.91;10269321;28;20054;-61
2021/12/26 13:27:43;;;;;;;13.88;12.48;;;;;;;3.68;71.42;99291.38;10267869;28;20424;-61
2021/12/26 13:32:45;;;;;;;14.38;12.88;;;;;;;3.69;72.08;99282.53;10275298;28;20052;-61
2021/12/26 13:37:46;;;;;;;15.20;12.18;;;;;;;3.65;72.47;99266.09;10258222;28;20141;-61
2021/12/26 13:42:51;;;;;;;12.60;11.20;;;;;;;3.69;72.17;99277.25;10271852;28;20137;-60
2021/12/26 13:47:53;;;;;;;12.48;11.23;;;;;;;3.60;72.29;99267.34;10273059;28;20047;-61
2021/12/26 13:53:08;;;;;;;15.07;11.57;;;;;;;3.67;72.66;99282.63;10275416;28;20122;-61
2021/12/26 13:58:13;;;;;;;14.68;12.05;;;;;;;3.64;72.95;99269.66;10272920;28;20068;-62
2021/12/26 14:03:18;;;;;;;13.48;11.95;;;;;;;3.65;73.02;99270.53;10271777;28;20157;-61
2021/12/26 14:08:27;;;;;;;14.43;12.50;;;;;;;3.67;73.35;99258.09;10276706;28;20152;-62
2021/12/26 14:13:30;;;;;;;12.15;10.85;;;;;;;3.70;73.49;99263.16;10267979;28;20054;-60
2021/12/26 14:18:37;;;;;;;14.23;11.88;;;;;;;3.72;73.88;99270.00;10246211;28;20057;-62
2021/12/26 14:23:41;;;;;;;14.02;12.35;;;;;;;3.72;74.01;99266.50;10248173;28;20050;-58
2021/12/26 14:28:46;;;;;;;14.23;12.68;;;;;;;3.68;74.53;99275.59;10270703;28;20046;-61
2021/12/26 14:33:52;;;;;;;12.93;11.43;;;;;;;3.68;74.90;99279.06;10268166;28;20046;-61
2021/12/26 14:39:01;;;;;;;14.38;12.20;;;;;;;3.65;75.33;99281.06;10251942;28;20060;-60
2021/12/26 14:44:21;;;;;;;13.27;11.85;;;;;;;3.48;75.51;99261.97;10254256;28;20054;-60
2021/12/26 14:49:26;;;;;;;15.48;12.50;;;;;;;3.47;75.81;99262.91;10267857;28;20461;-61
2021/12/26 14:54:39;;;;;;;15.88;13.10;;;;;;;3.58;76.25;99275.34;10264182;28;20054;-60
2021/12/26 14:59:41;;;;;;;15.90;12.93;;;;;;;3.64;75.80;99274.94;10249390;28;20427;-62
2021/12/26 15:04:43;;;;;;;15.70;13.55;;;;;;;3.69;76.27;99266.72;10268211;28;20125;-61
2021/12/26 15:10:00;;;;;;;18.15;14.85;;;;;;;3.74;76.07;99264.66;10256729;28;20053;-61
2021/12/26 15:15:16;;;;;;;15.98;14.27;;;;;;;3.69;76.30;99269.34;10273715;28;20046;-61
2021/12/26 15:20:40;;;;;;;28.40;19.42;;;;;;;3.67;76.64;99274.72;10272488;28;20185;-62
2021/12/26 15:25:58;;;;;;;20.30;17.53;;;;;;;3.74;76.78;99271.69;10260506;28;20209;-61
2021/12/26 15:31:15;;;;;;;17.17;15.00;;;;;;;3.74;76.62;99266.41;10255908;28;20810;-61
2021/12/26 15:36:28;;;;;;;18.10;14.15;;;;;;;3.82;76.52;99272.00;10262180;28;20821;-63
2021/12/26 15:46:47;;;;;;;18.27;15.18;;;;;;;3.75;76.75;99261.03;10976834;23;20594;-61
2021/12/26 15:51:49;;;;;;;16.77;14.52;;;;;;;3.76;76.38;99272.44;10173376;28;20079;-61
2021/12/26 15:56:52;;;;;;;16.98;14.90;;;;;;;3.81;76.22;99272.94;10145926;29;20097;-61
2021/12/26 16:01:56;;;;;;;17.70;15.85;;;;;;;3.76;76.62;99275.91;10122849;29;20189;-61
2021/12/26 16:06:57;;;;;;;17.80;14.63;;;;;;;3.81;76.59;99262.41;10127591;29;20564;-63
2021/12/26 16:12:01;;;;;;;17.08;14.27;;;;;;;3.70;76.43;99255.25;10123479;29;20143;-62
2021/12/26 16:17:03;;;;;;;19.40;15.63;;;;;;;3.74;76.49;99263.78;10137799;29;20068;-62
2021/12/26 16:22:04;;;;;;;18.35;15.07;;;;;;;3.78;76.23;99263.47;10146254;29;20527;-61
2021/12/26 16:27:07;;;;;;;18.77;15.65;;;;;;;3.77;76.24;99263.56;10140973;29;20048;-61
2021/12/26 16:32:09;;;;;;;17.52;15.23;;;;;;;3.78;76.43;99262.63;10125925;29;20070;-62
2021/12/26 16:37:10;;;;;;;17.83;15.93;;;;;;;3.77;76.24;99253.03;10140915;29;20135;-61
2021/12/26 16:42:12;;;;;;;21.08;16.85;;;;;;;3.66;76.66;99245.88;10142943;29;20056;-61
2021/12/26 16:47:13;;;;;;;18.30;15.13;;;;;;;3.75;76.31;99255.78;10142845;29;20057;-61
2021/12/26 16:52:16;;;;;;;21.77;17.65;;;;;;;3.69;76.69;99245.66;10146705;29;20205;-62
2021/12/26 16:57:17;;;;;;;18.20;15.65;;;;;;;3.78;76.41;99255.56;10142253;29;20123;-60
2021/12/26 17:02:19;;;;;;;19.35;17.17;;;;;;;3.80;76.69;99248.44;10143872;29;20060;-64
2021/12/26 17:07:21;;;;;;;17.17;15.27;;;;;;;3.80;76.80;99250.19;10142728;29;20644;-60
2021/12/26 17:12:23;;;;;;;19.35;16.00;;;;;;;3.83;76.97;99242.94;10143104;29;20134;-60
2021/12/26 17:17:24;;;;;;;18.33;14.57;;;;;;;3.76;76.76;99225.88;10140650;29;20572;-61
2021/12/26 17:22:27;;;;;;;18.95;15.05;;;;;;;3.91;76.82;99249.50;10140789;29;20058;-61
2021/12/26 17:27:29;;;;;;;17.23;14.68;;;;;;;3.88;77.47;99245.25;10138258;29;20601;-60
2021/12/26 17:32:31;;;;;;;17.95;14.85;;;;;;;3.72;77.54;99221.78;10137692;29;20059;-64
2021/12/26 17:37:33;;;;;;;17.70;14.43;;;;;;;3.95;77.54;99245.66;10136278;29;20058;-61
2021/12/26 17:42:34;;;;;;;16.42;13.70;;;;;;;3.98;77.62;99248.94;10137839;29;20432;-62
2021/12/26 17:47:36;;;;;;;17.17;15.32;;;;;;;3.91;78.05;99246.84;10144586;29;20266;-62
2021/12/26 17:52:39;;;;;;;20.92;16.40;;;;;;;3.94;78.21;99241.38;10141469;29;20143;-60
2021/12/26 17:57:41;;;;;;;19.38;15.95;;;;;;;3.96;78.30;99252.63;10140131;29;20058;-60
2021/12/26 18:02:42;;;;;;;20.80;17.58;;;;;;;3.92;78.35;99249.38;10137894;29;20529;-62
2021/12/26 18:07:45;;;;;;;22.05;18.08;;;;;;;3.94;78.45;99244.00;10142243;29;20047;-62
2021/12/26 18:12:47;;;;;;;22.00;18.15;;;;;;;3.82;78.61;99217.56;10138339;29;20138;-60
2021/12/26 18:17:52;;;;;;;20.30;16.67;;;;;;;3.99;78.90;99239.25;10126023;29;20426;-61
2021/12/26 18:22:54;;;;;;;18.52;16.45;;;;;;;3.88;78.47;99222.41;10125265;29;20051;-62
2021/12/26 18:27:55;;;;;;;20.23;17.02;;;;;;;3.98;78.61;99232.28;10139957;29;20144;-61
2021/12/26 18:33:00;;;;;;;19.85;15.73;;;;;;;3.97;78.70;99228.81;10139815;29;20399;-62
2021/12/26 18:38:02;;;;;;;21.50;17.80;;;;;;;4.01;78.50;99237.38;10140134;29;20048;-62
2021/12/26 18:43:06;;;;;;;20.90;16.52;;;;;;;4.03;78.56;99235.47;10139260;29;20519;-62
2021/12/26 18:48:10;;;;;;;21.65;16.77;;;;;;;3.92;78.69;99203.75;10141641;29;20044;-62
2021/12/26 18:53:11;;;;;;;19.73;15.77;;;;;;;4.09;78.59;99221.88;10139080;29;20059;-61
2021/12/26 18:58:14;;;;;;;18.30;16.40;;;;;;;4.01;78.84;99206.59;10136667;29;20058;-61
2021/12/26 19:03:16;;;;;;;18.90;15.85;;;;;;;4.08;78.90;99214.91;10145906;29;20060;-62
2021/12/26 19:08:17;;;;;;;18.00;14.57;;;;;;;4.10;79.01;99197.22;10138448;29;20044;-62
2021/12/26 19:13:21;;;;;;;19.90;14.65;;;;;;;4.19;78.84;99203.63;10152975;28;20058;-62
2021/12/26 19:18:23;;;;;;;16.08;14.18;;;;;;;4.15;78.87;99210.06;10179036;28;20047;-61
2021/12/26 19:23:25;;;;;;;17.98;14.13;;;;;;;4.18;78.70;99210.69;10176830;28;20059;-62
2021/12/26 19:28:29;;;;;;;19.88;16.38;;;;;;;4.18;79.00;99208.03;10176356;28;20130;-62
2021/12/26 19:33:33;;;;;;;17.33;14.85;;;;;;;4.21;79.08;99205.19;10176121;28;20043;-63
2021/12/26 19:38:35;;;;;;;16.23;14.52;;;;;;;4.15;79.05;99186.34;10178071;28;20056;-60
2021/12/26 19:43:36;;;;;;;17.88;15.60;;;;;;;4.22;79.12;99190.25;10177119;28;20150;-60
2021/12/26 19:48:38;;;;;;;18.25;15.70;;;;;;;4.24;79.19;99197.06;10172483;28;20051;-60
2021/12/26 19:53:39;;;;;;;17.92;16.02;;;;;;;4.18;78.91;99186.13;10181743;28;20491;-61
2021/12/26 19:58:41;;;;;;;19.20;15.93;;;;;;;4.21;79.00;99189.38;10181970;28;20134;-61
2021/12/26 20:03:43;;;;;;;21.02;16.52;;;;;;;4.23;79.40;99192.78;10184758;28;20054;-60
2021/12/26 20:08:44;;;;;;;20.00;16.77;;;;;;;4.26;79.30;99189.06;10181285;28;20199;-61
2021/12/26 20:13:46;;;;;;;20.80;15.93;;;;;;;4.21;79.14;99172.75;10179874;28;20503;-62
2021/12/26 20:18:49;;;;;;;18.67;16.10;;;;;;;4.27;78.73;99182.84;10185851;28;20051;-60
2021/12/26 20:23:52;;;;;;;19.45;16.48;;;;;;;4.11;78.48;99156.75;10181709;28;20436;-61
2021/12/26 20:28:54;;;;;;;19.77;17.20;;;;;;;4.22;78.86;99180.53;10178934;28;20053;-61
2021/12/26 20:33:58;;;;;;;19.95;17.00;;;;;;;4.18;78.60;99173.78;10180860;28;20051;-61
2021/12/26 20:38:59;;;;;;;21.10;16.92;;;;;;;4.20;78.59;99160.53;10180471;28;20071;-60
2021/12/26 20:44:02;;;;;;;21.30;18.40;;;;;;;4.16;79.05;99166.94;10182174;28;20051;-62
2021/12/26 20:49:05;;;;;;;23.48;18.27;;;;;;;4.09;78.93;99140.22;10180075;28;20059;-59
2021/12/26 20:54:07;;;;;;;25.13;20.02;;;;;;;4.19;78.92;99143.06;10182328;28;20048;-60
2021/12/26 20:59:08;;;;;;;22.75;18.70;;;;;;;4.22;79.37;99138.38;10181869;28;20517;-61
2021/12/26 21:04:10;;;;;;;21.75;19.42;;;;;;;4.25;79.20;99132.91;10173830;28;20060;-61
2021/12/26 21:09:12;;;;;;;19.77;17.63;;;;;;;4.24;79.69;99125.94;10183774;28;20055;-61
2021/12/26 21:14:13;;;;;;;18.75;16.58;;;;;;;4.34;79.60;99127.91;10185066;28;20471;-61
2021/12/26 21:19:16;;;;;;;18.40;15.85;;;;;;;4.32;79.61;99122.75;10177661;28;20058;-60
2021/12/26 21:24:18;;;;;;;17.92;14.82;;;;;;;4.31;80.08;99130.75;10180362;28;20058;-61
2021/12/26 21:29:21;;;;;;;18.38;16.05;;;;;;;4.32;79.51;99133.28;10178993;28;20060;-60
2021/12/26 21:34:22;;;;;;;19.45;17.20;;;;;;;4.19;79.48;99106.16;10177914;28;20155;-61
2021/12/26 21:39:24;;;;;;;19.63;17.02;;;;;;;4.17;79.21;99098.34;10179026;28;20436;-61
2021/12/26 21:44:25;;;;;;;20.85;16.40;;;;;;;4.28;79.67;99118.69;10178200;28;20056;-62
2021/12/26 21:49:27;;;;;;;20.48;16.63;;;;;;;4.33;79.58;99128.88;10173585;28;20056;-61
2021/12/26 21:54:29;;;;;;;18.33;15.93;;;;;;;4.34;79.65;99120.84;10176694;28;20471;-62
2021/12/26 21:59:31;;;;;;;18.48;15.15;;;;;;;4.23;79.57;99104.97;10170755;28;20054;-62
2021/12/26 22:04:32;;;;;;;16.58;14.48;;;;;;;4.21;79.64;99102.47;10174590;28;20053;-59
2021/12/26 22:09:34;;;;;;;19.05;16.38;;;;;;;4.32;80.04;99122.75;10181753;28;20827;-60
2021/12/26 22:14:35;;;;;;;20.88;15.93;;;;;;;4.35;79.37;99116.41;10178722;28;20051;-60
2021/12/26 22:19:40;;;;;;;18.98;15.00;;;;;;;4.30;79.50;99103.59;10173800;28;20660;-61
2021/12/26 22:24:42;;;;;;;15.82;14.15;;;;;;;4.29;79.15;99107.16;10177471;28;21022;-62
2021/12/26 22:29:48;;;;;;;14.65;12.82;;;;;;;4.30;79.50;99100.94;10178606;28;20095;-63
2021/12/26 22:34:49;;;;;;;14.90;12.52;;;;;;;4.25;79.69;99089.91;10177501;28;20478;-60
2021/12/26 22:39:51;;;;;;;14.63;12.45;;;;;;;4.36;79.82;99108.41;10175389;28;20126;-60
2021/12/26 22:44:52;;;;;;;12.75;11.10;;;;;;;4.36;79.99;99092.59;10171603;28;20078;-60
2021/12/26 22:49:54;;;;;;;13.93;11.80;;;;;;;4.36;80.05;99089.13;10175463;28;20059;-59
2021/12/26 22:54:55;;;;;;;13.35;11.18;;;;;;;4.34;80.44;99089.25;10198109;28;20240;-62
2021/12/26 22:59:57;;;;;;;12.52;11.23;;;;;;;4.29;80.48;99086.09;10214290;28;20063;-62
2021/12/26 23:04:58;;;;;;;12.25;11.00;;;;;;;4.41;80.53;99079.09;10213457;28;20138;-62
2021/12/26 23:10:00;;;;;;;12.77;11.50;;;;;;;4.44;80.90;99081.50;10215219;28;20079;-62
2021/12/26 23:15:02;;;;;;;13.80;11.57;;;;;;;4.42;81.21;99078.13;10209702;28;20126;-63
2021/12/26 23:20:04;;;;;;;12.25;10.95;;;;;;;4.45;80.96;99075.28;10212558;29;20593;-62
2021/12/26 23:25:06;;;;;;;13.02;11.68;;;;;;;4.47;81.06;99072.53;10216600;28;20138;-63
2021/12/26 23:30:08;;;;;;;14.98;12.65;;;;;;;4.47;81.21;99067.25;10219038;28;20751;-62
2021/12/26 23:35:09;;;;;;;14.80;12.45;;;;;;;4.40;81.39;99061.63;10223888;28;20689;-65
2021/12/26 23:40:16;;;;;;;13.07;11.68;;;;;;;4.46;81.17;99068.19;10215976;28;20146;-63
2021/12/26 23:45:23;;;;;;;12.77;11.48;;;;;;;4.43;81.35;99064.00;10217973;28;20047;-63